Terminal Aerodrome Forecast
Issued by NWS Sioux Falls, SD

Home | Current Version | Previous Version | Graphics & Text | Print | Product List | Glossary Off
Versions: 1 2 3 4 5 6 7 8 9 10 11 12 13 14

000
FTUS43 KFSD 191120
TAFFSD
TAF
KFSD 191120Z 1912/2012 VRB03KT P6SM FEW250
     FM191400 18009KT P6SM FEW250
     FM191700 18014G21KT P6SM FEW250
     FM200000 17010KT P6SM SKC
     FM200400 17008KT P6SM FEW120 WS020/20035KT=

USA.gov is the U.S. government's official web portal to all federal, state and local government web resources and services.